sensor_id;sensor_type;location;lat;lon;timestamp;temperature;humidity
75022;SHT31;63583;49.976;20.182;2023-06-14T00:00:40;11.15;98.03
75022;SHT31;63583;49.976;20.182;2023-06-14T00:03:26;11.12;98.09
75022;SHT31;63583;49.976;20.182;2023-06-14T00:05:52;11.17;98.22
75022;SHT31;63583;49.976;20.182;2023-06-14T00:08:17;11.10;98.30
75022;SHT31;63583;49.976;20.182;2023-06-14T00:10:44;11.18;98.22
75022;SHT31;63583;49.976;20.182;2023-06-14T00:13:10;11.14;98.55
75022;SHT31;63583;49.976;20.182;2023-06-14T00:15:36;11.15;98.14
75022;SHT31;63583;49.976;20.182;2023-06-14T00:18:03;11.21;98.08
75022;SHT31;63583;49.976;20.182;2023-06-14T00:20:30;11.24;97.79
75022;SHT31;63583;49.976;20.182;2023-06-14T00:22:58;11.29;97.51
75022;SHT31;63583;49.976;20.182;2023-06-14T00:25:25;11.28;97.32
75022;SHT31;63583;49.976;20.182;2023-06-14T00:27:51;11.39;97.04
75022;SHT31;63583;49.976;20.182;2023-06-14T00:30:17;11.36;97.06
75022;SHT31;63583;49.976;20.182;2023-06-14T00:32:44;11.36;97.10
75022;SHT31;63583;49.976;20.182;2023-06-14T00:35:10;11.34;97.13
75022;SHT31;63583;49.976;20.182;2023-06-14T00:37:35;11.45;96.88
75022;SHT31;63583;49.976;20.182;2023-06-14T00:40:02;11.46;96.49
75022;SHT31;63583;49.976;20.182;2023-06-14T00:42:29;11.51;96.47
75022;SHT31;63583;49.976;20.182;2023-06-14T00:44:55;11.54;96.57
75022;SHT31;63583;49.976;20.182;2023-06-14T00:47:21;11.54;96.33
75022;SHT31;63583;49.976;20.182;2023-06-14T00:49:48;11.51;96.34
75022;SHT31;63583;49.976;20.182;2023-06-14T00:52:15;11.58;96.32
75022;SHT31;63583;49.976;20.182;2023-06-14T00:54:42;11.61;96.07
75022;SHT31;63583;49.976;20.182;2023-06-14T00:57:08;11.49;96.25
75022;SHT31;63583;49.976;20.182;2023-06-14T00:59:43;11.43;96.65
75022;SHT31;63583;49.976;20.182;2023-06-14T01:02:09;11.39;97.06
75022;SHT31;63583;49.976;20.182;2023-06-14T01:04:36;11.34;97.41
75022;SHT31;63583;49.976;20.182;2023-06-14T01:07:11;11.38;97.31
75022;SHT31;63583;49.976;20.182;2023-06-14T01:12:21;11.38;97.29
75022;SHT31;63583;49.976;20.182;2023-06-14T01:14:49;11.38;97.48
75022;SHT31;63583;49.976;20.182;2023-06-14T01:17:16;11.34;97.53
75022;SHT31;63583;49.976;20.182;2023-06-14T01:19:43;11.36;97.62
75022;SHT31;63583;49.976;20.182;2023-06-14T01:22:09;11.36;97.54
75022;SHT31;63583;49.976;20.182;2023-06-14T01:24:36;11.34;97.60
75022;SHT31;63583;49.976;20.182;2023-06-14T01:27:02;11.35;97.66
75022;SHT31;63583;49.976;20.182;2023-06-14T01:29:29;11.36;97.65
75022;SHT31;63583;49.976;20.182;2023-06-14T01:31:59;11.39;97.58
75022;SHT31;63583;49.976;20.182;2023-06-14T01:34:25;11.46;97.28
75022;SHT31;63583;49.976;20.182;2023-06-14T01:36:52;11.43;97.09
75022;SHT31;63583;49.976;20.182;2023-06-14T01:39:21;11.34;97.58
75022;SHT31;63583;49.976;20.182;2023-06-14T01:41:48;11.38;97.60
75022;SHT31;63583;49.976;20.182;2023-06-14T01:44:16;11.41;97.63
75022;SHT31;63583;49.976;20.182;2023-06-14T01:46:42;11.35;97.65
75022;SHT31;63583;49.976;20.182;2023-06-14T01:49:08;11.31;97.80
75022;SHT31;63583;49.976;20.182;2023-06-14T01:51:34;11.29;98.01
75022;SHT31;63583;49.976;20.182;2023-06-14T01:54:01;11.32;98.25
75022;SHT31;63583;49.976;20.182;2023-06-14T01:56:26;11.38;98.27
75022;SHT31;63583;49.976;20.182;2023-06-14T01:58:52;11.38;98.01
75022;SHT31;63583;49.976;20.182;2023-06-14T02:01:19;11.43;98.08
75022;SHT31;63583;49.976;20.182;2023-06-14T02:03:47;11.42;97.86
75022;SHT31;63583;49.976;20.182;2023-06-14T02:06:13;11.48;97.75
75022;SHT31;63583;49.976;20.182;2023-06-14T02:08:41;11.41;97.60
75022;SHT31;63583;49.976;20.182;2023-06-14T02:11:08;11.29;98.23
75022;SHT31;63583;49.976;20.182;2023-06-14T02:13:33;11.24;98.64
75022;SHT31;63583;49.976;20.182;2023-06-14T02:16:00;11.27;98.62
75022;SHT31;63583;49.976;20.182;2023-06-14T02:18:26;11.32;98.57
75022;SHT31;63583;49.976;20.182;2023-06-14T02:20:52;11.25;98.66
75022;SHT31;63583;49.976;20.182;2023-06-14T02:23:18;11.31;98.82
75022;SHT31;63583;49.976;20.182;2023-06-14T02:25:43;11.32;98.85
75022;SHT31;63583;49.976;20.182;2023-06-14T02:28:11;11.42;98.87
75022;SHT31;63583;49.976;20.182;2023-06-14T02:30:37;11.38;98.78
75022;SHT31;63583;49.976;20.182;2023-06-14T02:33:03;11.41;98.72
75022;SHT31;63583;49.976;20.182;2023-06-14T02:35:30;11.38;98.12
75022;SHT31;63583;49.976;20.182;2023-06-14T02:37:56;11.34;98.16
75022;SHT31;63583;49.976;20.182;2023-06-14T02:40:22;11.36;98.37
75022;SHT31;63583;49.976;20.182;2023-06-14T02:42:47;11.36;98.28
75022;SHT31;63583;49.976;20.182;2023-06-14T02:45:13;11.41;98.35
75022;SHT31;63583;49.976;20.182;2023-06-14T02:47:39;11.45;98.31
75022;SHT31;63583;49.976;20.182;2023-06-14T02:50:05;11.49;97.93
75022;SHT31;63583;49.976;20.182;2023-06-14T02:52:31;11.41;98.29
75022;SHT31;63583;49.976;20.182;2023-06-14T02:54:58;11.43;98.17
75022;SHT31;63583;49.976;20.182;2023-06-14T02:57:24;11.52;97.90
75022;SHT31;63583;49.976;20.182;2023-06-14T02:59:50;11.46;97.90
75022;SHT31;63583;49.976;20.182;2023-06-14T03:02:15;11.48;98.08
75022;SHT31;63583;49.976;20.182;2023-06-14T03:04:41;11.54;97.50
75022;SHT31;63583;49.976;20.182;2023-06-14T03:07:10;11.48;97.62
75022;SHT31;63583;49.976;20.182;2023-06-14T03:09:36;11.43;98.08
75022;SHT31;63583;49.976;20.182;2023-06-14T03:12:06;11.45;98.54
75022;SHT31;63583;49.976;20.182;2023-06-14T03:14:37;11.46;98.46
75022;SHT31;63583;49.976;20.182;2023-06-14T03:17:04;11.49;98.41
75022;SHT31;63583;49.976;20.182;2023-06-14T03:19:30;11.51;98.17
75022;SHT31;63583;49.976;20.182;2023-06-14T03:21:56;11.49;98.62
75022;SHT31;63583;49.976;20.182;2023-06-14T03:24:24;11.49;98.51
75022;SHT31;63583;49.976;20.182;2023-06-14T03:26:53;11.55;98.30
75022;SHT31;63583;49.976;20.182;2023-06-14T03:29:19;11.61;98.05
75022;SHT31;63583;49.976;20.182;2023-06-14T03:32:02;11.59;98.28
75022;SHT31;63583;49.976;20.182;2023-06-14T03:34:28;11.59;98.47
75022;SHT31;63583;49.976;20.182;2023-06-14T03:36:54;11.52;98.50
75022;SHT31;63583;49.976;20.182;2023-06-14T03:39:19;11.63;98.50
75022;SHT31;63583;49.976;20.182;2023-06-14T03:41:46;11.63;97.93
75022;SHT31;63583;49.976;20.182;2023-06-14T03:44:11;11.68;97.96
75022;SHT31;63583;49.976;20.182;2023-06-14T03:46:37;11.68;97.65
75022;SHT31;63583;49.976;20.182;2023-06-14T03:49:02;11.70;97.86
75022;SHT31;63583;49.976;20.182;2023-06-14T03:51:28;11.69;97.83
75022;SHT31;63583;49.976;20.182;2023-06-14T03:53:54;11.70;98.13
75022;SHT31;63583;49.976;20.182;2023-06-14T03:56:21;11.66;98.05
75022;SHT31;63583;49.976;20.182;2023-06-14T03:58:47;11.68;98.34
75022;SHT31;63583;49.976;20.182;2023-06-14T04:01:13;11.69;98.45
75022;SHT31;63583;49.976;20.182;2023-06-14T04:03:39;11.80;98.14
75022;SHT31;63583;49.976;20.182;2023-06-14T04:06:06;11.79;97.83
75022;SHT31;63583;49.976;20.182;2023-06-14T04:08:33;11.76;98.09
75022;SHT31;63583;49.976;20.182;2023-06-14T04:10:58;11.85;97.93
75022;SHT31;63583;49.976;20.182;2023-06-14T04:13:24;11.87;97.89
75022;SHT31;63583;49.976;20.182;2023-06-14T04:15:49;11.93;97.36
75022;SHT31;63583;49.976;20.182;2023-06-14T04:18:15;11.82;97.78
75022;SHT31;63583;49.976;20.182;2023-06-14T04:20:41;11.82;97.94
75022;SHT31;63583;49.976;20.182;2023-06-14T04:23:17;11.91;97.70
75022;SHT31;63583;49.976;20.182;2023-06-14T04:25:47;11.89;97.89
75022;SHT31;63583;49.976;20.182;2023-06-14T04:28:14;11.94;97.90
75022;SHT31;63583;49.976;20.182;2023-06-14T04:30:44;12.00;97.39
75022;SHT31;63583;49.976;20.182;2023-06-14T04:33:10;12.03;97.41
75022;SHT31;63583;49.976;20.182;2023-06-14T04:35:36;12.10;96.93
75022;SHT31;63583;49.976;20.182;2023-06-14T04:38:05;12.10;97.19
75022;SHT31;63583;49.976;20.182;2023-06-14T04:40:35;12.13;96.70
75022;SHT31;63583;49.976;20.182;2023-06-14T04:43:11;12.06;96.98
75022;SHT31;63583;49.976;20.182;2023-06-14T04:45:37;12.01;96.77
75022;SHT31;63583;49.976;20.182;2023-06-14T04:48:05;12.00;97.29
75022;SHT31;63583;49.976;20.182;2023-06-14T04:50:32;12.00;97.29
75022;SHT31;63583;49.976;20.182;2023-06-14T04:52:58;12.03;97.37
75022;SHT31;63583;49.976;20.182;2023-06-14T04:55:25;11.87;97.37
75022;SHT31;63583;49.976;20.182;2023-06-14T04:57:51;11.83;98.19
75022;SHT31;63583;49.976;20.182;2023-06-14T05:00:22;11.65;98.30
75022;SHT31;63583;49.976;20.182;2023-06-14T05:02:48;11.75;98.35
75022;SHT31;63583;49.976;20.182;2023-06-14T05:05:14;11.83;97.74
75022;SHT31;63583;49.976;20.182;2023-06-14T05:07:41;11.83;97.57
75022;SHT31;63583;49.976;20.182;2023-06-14T05:10:07;11.76;98.13
75022;SHT31;63583;49.976;20.182;2023-06-14T05:12:32;11.76;97.94
75022;SHT31;63583;49.976;20.182;2023-06-14T05:14:59;11.82;97.53
75022;SHT31;63583;49.976;20.182;2023-06-14T05:17:25;11.87;97.73
75022;SHT31;63583;49.976;20.182;2023-06-14T05:19:53;11.87;97.61
75022;SHT31;63583;49.976;20.182;2023-06-14T05:22:21;11.86;97.85
75022;SHT31;63583;49.976;20.182;2023-06-14T05:24:47;11.93;97.86
75022;SHT31;63583;49.976;20.182;2023-06-14T05:27:13;12.04;97.42
75022;SHT31;63583;49.976;20.182;2023-06-14T05:29:39;12.10;97.06
75022;SHT31;63583;49.976;20.182;2023-06-14T05:32:05;12.08;97.40
75022;SHT31;63583;49.976;20.182;2023-06-14T05:34:31;12.10;97.30
75022;SHT31;63583;49.976;20.182;2023-06-14T05:36:57;12.08;97.59
75022;SHT31;63583;49.976;20.182;2023-06-14T05:39:23;12.08;97.51
75022;SHT31;63583;49.976;20.182;2023-06-14T05:41:49;12.08;97.40
75022;SHT31;63583;49.976;20.182;2023-06-14T05:44:15;12.16;97.57
75022;SHT31;63583;49.976;20.182;2023-06-14T05:46:40;12.07;96.97
75022;SHT31;63583;49.976;20.182;2023-06-14T05:49:06;12.14;97.16
75022;SHT31;63583;49.976;20.182;2023-06-14T05:51:32;12.10;97.32
75022;SHT31;63583;49.976;20.182;2023-06-14T05:53:58;12.06;97.49
75022;SHT31;63583;49.976;20.182;2023-06-14T05:56:23;12.12;97.40
75022;SHT31;63583;49.976;20.182;2023-06-14T05:58:49;12.08;97.45
75022;SHT31;63583;49.976;20.182;2023-06-14T06:01:15;12.13;97.67
75022;SHT31;63583;49.976;20.182;2023-06-14T06:03:42;12.04;97.87
75022;SHT31;63583;49.976;20.182;2023-06-14T06:06:11;11.91;98.46
75022;SHT31;63583;49.976;20.182;2023-06-14T06:08:37;12.07;98.08
75022;SHT31;63583;49.976;20.182;2023-06-14T06:11:02;11.97;98.49
75022;SHT31;63583;49.976;20.182;2023-06-14T06:13:28;12.01;98.33
75022;SHT31;63583;49.976;20.182;2023-06-14T06:15:53;11.87;98.81
75022;SHT31;63583;49.976;20.182;2023-06-14T06:18:19;11.79;99.18
75022;SHT31;63583;49.976;20.182;2023-06-14T06:20:45;11.77;99.85
75022;SHT31;63583;49.976;20.182;2023-06-14T06:23:12;11.65;99.99
75022;SHT31;63583;49.976;20.182;2023-06-14T06:25:38;11.73;99.99
75022;SHT31;63583;49.976;20.182;2023-06-14T06:28:04;11.86;99.99
75022;SHT31;63583;49.976;20.182;2023-06-14T06:30:29;11.86;99.99
75022;SHT31;63583;49.976;20.182;2023-06-14T06:32:55;11.89;99.99
75022;SHT31;63583;49.976;20.182;2023-06-14T06:35:21;11.89;99.99
75022;SHT31;63583;49.976;20.182;2023-06-14T06:37:47;11.89;99.99
75022;SHT31;63583;49.976;20.182;2023-06-14T06:40:12;11.96;99.99
75022;SHT31;63583;49.976;20.182;2023-06-14T06:42:38;11.91;99.99
75022;SHT31;63583;49.976;20.182;2023-06-14T06:45:04;11.98;99.99
75022;SHT31;63583;49.976;20.182;2023-06-14T06:47:30;11.98;99.99
75022;SHT31;63583;49.976;20.182;2023-06-14T06:49:56;12.04;99.99
75022;SHT31;63583;49.976;20.182;2023-06-14T06:52:22;12.10;99.99
75022;SHT31;63583;49.976;20.182;2023-06-14T06:54:47;12.06;99.99
75022;SHT31;63583;49.976;20.182;2023-06-14T06:57:14;11.89;99.99
75022;SHT31;63583;49.976;20.182;2023-06-14T06:59:40;11.98;99.99
75022;SHT31;63583;49.976;20.182;2023-06-14T07:02:06;12.04;99.99
75022;SHT31;63583;49.976;20.182;2023-06-14T07:04:31;12.16;99.99
75022;SHT31;63583;49.976;20.182;2023-06-14T07:06:57;12.27;99.99
75022;SHT31;63583;49.976;20.182;2023-06-14T07:09:22;12.20;99.99
75022;SHT31;63583;49.976;20.182;2023-06-14T07:11:50;12.25;99.99
75022;SHT31;63583;49.976;20.182;2023-06-14T07:14:15;12.17;99.99
75022;SHT31;63583;49.976;20.182;2023-06-14T07:16:41;12.28;99.99
75022;SHT31;63583;49.976;20.182;2023-06-14T07:19:08;12.28;99.99
75022;SHT31;63583;49.976;20.182;2023-06-14T07:21:34;12.31;99.99
75022;SHT31;63583;49.976;20.182;2023-06-14T07:24:00;12.38;99.99
75022;SHT31;63583;49.976;20.182;2023-06-14T07:26:26;12.42;99.99
75022;SHT31;63583;49.976;20.182;2023-06-14T07:28:52;12.38;99.99
75022;SHT31;63583;49.976;20.182;2023-06-14T07:31:18;12.40;99.99
75022;SHT31;63583;49.976;20.182;2023-06-14T07:33:45;12.40;99.99
75022;SHT31;63583;49.976;20.182;2023-06-14T07:36:11;12.40;99.99
75022;SHT31;63583;49.976;20.182;2023-06-14T07:38:36;12.46;99.99
75022;SHT31;63583;49.976;20.182;2023-06-14T07:41:02;12.52;99.99
75022;SHT31;63583;49.976;20.182;2023-06-14T07:43:28;12.41;99.99
75022;SHT31;63583;49.976;20.182;2023-06-14T07:45:54;12.42;99.99
75022;SHT31;63583;49.976;20.182;2023-06-14T07:48:20;12.49;99.99
75022;SHT31;63583;49.976;20.182;2023-06-14T07:50:46;12.45;99.99
75022;SHT31;63583;49.976;20.182;2023-06-14T07:53:11;12.42;99.99
75022;SHT31;63583;49.976;20.182;2023-06-14T07:55:37;12.41;99.69
75022;SHT31;63583;49.976;20.182;2023-06-14T07:58:03;12.30;99.99
75022;SHT31;63583;49.976;20.182;2023-06-14T08:00:29;12.38;99.99
75022;SHT31;63583;49.976;20.182;2023-06-14T08:02:55;12.33;99.99
75022;SHT31;63583;49.976;20.182;2023-06-14T08:05:28;12.35;99.99
75022;SHT31;63583;49.976;20.182;2023-06-14T08:07:54;12.40;99.99
75022;SHT31;63583;49.976;20.182;2023-06-14T08:10:21;12.49;99.99
75022;SHT31;63583;49.976;20.182;2023-06-14T08:12:47;12.48;99.99
75022;SHT31;63583;49.976;20.182;2023-06-14T08:15:14;12.51;99.99
75022;SHT31;63583;49.976;20.182;2023-06-14T08:17:39;12.45;99.99
75022;SHT31;63583;49.976;20.182;2023-06-14T08:20:06;12.54;99.99
75022;SHT31;63583;49.976;20.182;2023-06-14T08:22:32;12.51;99.99
75022;SHT31;63583;49.976;20.182;2023-06-14T08:25:01;12.49;99.99
75022;SHT31;63583;49.976;20.182;2023-06-14T08:27:27;12.44;99.99
75022;SHT31;63583;49.976;20.182;2023-06-14T08:29:53;12.28;99.99
75022;SHT31;63583;49.976;20.182;2023-06-14T08:32:19;12.35;99.99
75022;SHT31;63583;49.976;20.182;2023-06-14T08:34:45;12.42;99.99
75022;SHT31;63583;49.976;20.182;2023-06-14T08:37:10;12.49;99.99
75022;SHT31;63583;49.976;20.182;2023-06-14T08:39:36;12.49;99.99
75022;SHT31;63583;49.976;20.182;2023-06-14T08:42:03;12.44;99.99
75022;SHT31;63583;49.976;20.182;2023-06-14T08:44:30;12.49;99.99
75022;SHT31;63583;49.976;20.182;2023-06-14T08:46:56;12.56;99.99
75022;SHT31;63583;49.976;20.182;2023-06-14T08:49:24;12.68;99.99
75022;SHT31;63583;49.976;20.182;2023-06-14T08:51:57;12.76;99.99
75022;SHT31;63583;49.976;20.182;2023-06-14T08:54:23;12.82;99.99
75022;SHT31;63583;49.976;20.182;2023-06-14T08:56:53;12.81;99.99
75022;SHT31;63583;49.976;20.182;2023-06-14T08:59:25;12.95;99.99
75022;SHT31;63583;49.976;20.182;2023-06-14T09:01:52;13.02;99.92
75022;SHT31;63583;49.976;20.182;2023-06-14T09:04:18;12.95;99.62
75022;SHT31;63583;49.976;20.182;2023-06-14T09:06:45;13.02;99.92
75022;SHT31;63583;49.976;20.182;2023-06-14T09:09:11;13.06;99.74
75022;SHT31;63583;49.976;20.182;2023-06-14T09:11:37;13.17;99.11
75022;SHT31;63583;49.976;20.182;2023-06-14T09:14:03;13.21;98.97
75022;SHT31;63583;49.976;20.182;2023-06-14T09:16:32;13.17;99.57
75022;SHT31;63583;49.976;20.182;2023-06-14T09:18:58;13.30;99.11
75022;SHT31;63583;49.976;20.182;2023-06-14T09:21:23;13.34;99.31
75022;SHT31;63583;49.976;20.182;2023-06-14T09:23:49;13.36;99.59
75022;SHT31;63583;49.976;20.182;2023-06-14T09:26:17;13.38;99.38
75022;SHT31;63583;49.976;20.182;2023-06-14T09:28:46;13.40;98.46
75022;SHT31;63583;49.976;20.182;2023-06-14T09:31:16;13.30;99.24
75022;SHT31;63583;49.976;20.182;2023-06-14T09:33:46;13.27;99.97
75022;SHT31;63583;49.976;20.182;2023-06-14T09:36:19;13.26;99.69
75022;SHT31;63583;49.976;20.182;2023-06-14T09:44:02;13.50;98.90
75022;SHT31;63583;49.976;20.182;2023-06-14T09:46:29;13.46;98.75
75022;SHT31;63583;49.976;20.182;2023-06-14T09:48:58;13.36;98.87
75022;SHT31;63583;49.976;20.182;2023-06-14T09:51:25;13.36;98.64
75022;SHT31;63583;49.976;20.182;2023-06-14T09:53:52;13.36;98.73
75022;SHT31;63583;49.976;20.182;2023-06-14T09:56:25;13.50;98.44
75022;SHT31;63583;49.976;20.182;2023-06-14T09:59:04;13.50;98.22
75022;SHT31;63583;49.976;20.182;2023-06-14T10:01:31;13.41;97.86
75022;SHT31;63583;49.976;20.182;2023-06-14T10:04:03;13.48;98.73
75022;SHT31;63583;49.976;20.182;2023-06-14T10:06:29;13.58;98.95
75022;SHT31;63583;49.976;20.182;2023-06-14T10:08:57;13.67;98.50
75022;SHT31;63583;49.976;20.182;2023-06-14T10:11:26;13.61;98.59
75022;SHT31;63583;49.976;20.182;2023-06-14T10:13:52;13.58;98.56
75022;SHT31;63583;49.976;20.182;2023-06-14T10:16:26;13.67;97.90
75022;SHT31;63583;49.976;20.182;2023-06-14T10:19:06;13.65;98.07
75022;SHT31;63583;49.976;20.182;2023-06-14T10:21:49;13.62;98.54
75022;SHT31;63583;49.976;20.182;2023-06-14T10:24:19;13.64;98.98
75022;SHT31;63583;49.976;20.182;2023-06-14T10:26:59;13.62;99.11
75022;SHT31;63583;49.976;20.182;2023-06-14T10:29:28;13.58;98.87
75022;SHT31;63583;49.976;20.182;2023-06-14T10:31:58;13.64;99.38
75022;SHT31;63583;49.976;20.182;2023-06-14T10:34:28;13.67;99.03
75022;SHT31;63583;49.976;20.182;2023-06-14T10:37:01;13.81;98.48
75022;SHT31;63583;49.976;20.182;2023-06-14T10:39:28;13.75;98.20
75022;SHT31;63583;49.976;20.182;2023-06-14T10:41:55;13.72;98.39
75022;SHT31;63583;49.976;20.182;2023-06-14T10:46:52;13.83;98.20
75022;SHT31;63583;49.976;20.182;2023-06-14T10:49:18;13.88;98.06
75022;SHT31;63583;49.976;20.182;2023-06-14T10:51:54;13.96;98.37
75022;SHT31;63583;49.976;20.182;2023-06-14T10:54:22;14.08;97.00
75022;SHT31;63583;49.976;20.182;2023-06-14T10:56:50;14.15;96.12
75022;SHT31;63583;49.976;20.182;2023-06-14T10:59:17;14.13;96.62
75022;SHT31;63583;49.976;20.182;2023-06-14T11:04:12;14.43;96.99
75022;SHT31;63583;49.976;20.182;2023-06-14T11:06:46;14.65;95.34
75022;SHT31;63583;49.976;20.182;2023-06-14T11:09:30;14.74;94.35
75022;SHT31;63583;49.976;20.182;2023-06-14T11:12:00;14.71;94.08
75022;SHT31;63583;49.976;20.182;2023-06-14T11:14:30;14.59;95.18
75022;SHT31;63583;49.976;20.182;2023-06-14T11:16:56;14.45;96.32
75022;SHT31;63583;49.976;20.182;2023-06-14T11:19:22;14.47;96.78
75022;SHT31;63583;49.976;20.182;2023-06-14T11:21:48;14.43;95.84
75022;SHT31;63583;49.976;20.182;2023-06-14T11:24:14;14.41;96.62
75022;SHT31;63583;49.976;20.182;2023-06-14T11:26:40;14.33;94.60
75022;SHT31;63583;49.976;20.182;2023-06-14T11:29:06;14.34;95.14
75022;SHT31;63583;49.976;20.182;2023-06-14T11:31:32;14.23;94.21
75022;SHT31;63583;49.976;20.182;2023-06-14T11:33:59;14.38;95.13
75022;SHT31;63583;49.976;20.182;2023-06-14T11:36:29;14.50;95.10
75022;SHT31;63583;49.976;20.182;2023-06-14T11:39:03;14.63;95.67
75022;SHT31;63583;49.976;20.182;2023-06-14T11:44:06;14.81;93.61
75022;SHT31;63583;49.976;20.182;2023-06-14T11:46:33;14.72;93.25
75022;SHT31;63583;49.976;20.182;2023-06-14T11:48:58;14.80;93.58
75022;SHT31;63583;49.976;20.182;2023-06-14T11:51:24;14.91;93.01
75022;SHT31;63583;49.976;20.182;2023-06-14T11:53:50;14.92;93.26
75022;SHT31;63583;49.976;20.182;2023-06-14T11:56:16;14.92;92.57
75022;SHT31;63583;49.976;20.182;2023-06-14T11:58:46;14.96;92.76
75022;SHT31;63583;49.976;20.182;2023-06-14T12:01:16;15.03;92.11
75022;SHT31;63583;49.976;20.182;2023-06-14T12:03:52;15.15;92.53
75022;SHT31;63583;49.976;20.182;2023-06-14T12:06:26;15.28;92.32
75022;SHT31;63583;49.976;20.182;2023-06-14T12:08:56;15.26;91.37
75022;SHT31;63583;49.976;20.182;2023-06-14T12:11:21;15.28;89.36
75022;SHT31;63583;49.976;20.182;2023-06-14T12:13:48;15.32;90.70
75022;SHT31;63583;49.976;20.182;2023-06-14T12:16:14;15.49;90.24
75022;SHT31;63583;49.976;20.182;2023-06-14T12:18:41;15.73;88.16
75022;SHT31;63583;49.976;20.182;2023-06-14T12:21:09;15.97;89.14
75022;SHT31;63583;49.976;20.182;2023-06-14T12:23:45;16.18;86.78
75022;SHT31;63583;49.976;20.182;2023-06-14T12:26:15;16.06;86.70
75022;SHT31;63583;49.976;20.182;2023-06-14T12:28:42;16.19;85.18
75022;SHT31;63583;49.976;20.182;2023-06-14T12:31:11;16.39;86.85
75022;SHT31;63583;49.976;20.182;2023-06-14T12:33:39;16.21;87.54
75022;SHT31;63583;49.976;20.182;2023-06-14T12:36:06;16.26;85.79
75022;SHT31;63583;49.976;20.182;2023-06-14T12:38:33;16.19;85.78
75022;SHT31;63583;49.976;20.182;2023-06-14T12:40:59;16.26;85.20
75022;SHT31;63583;49.976;20.182;2023-06-14T12:43:24;16.45;84.72
75022;SHT31;63583;49.976;20.182;2023-06-14T12:45:50;16.77;85.26
75022;SHT31;63583;49.976;20.182;2023-06-14T12:48:16;16.97;84.57
75022;SHT31;63583;49.976;20.182;2023-06-14T12:50:41;16.81;83.20
75022;SHT31;63583;49.976;20.182;2023-06-14T12:53:08;16.72;82.61
75022;SHT31;63583;49.976;20.182;2023-06-14T12:55:33;16.33;84.00
75022;SHT31;63583;49.976;20.182;2023-06-14T12:57:59;16.06;84.70
75022;SHT31;63583;49.976;20.182;2023-06-14T13:00:25;16.01;85.18
75022;SHT31;63583;49.976;20.182;2023-06-14T13:02:56;16.30;85.37
75022;SHT31;63583;49.976;20.182;2023-06-14T13:05:22;16.36;84.46
75022;SHT31;63583;49.976;20.182;2023-06-14T13:07:48;15.93;84.95
75022;SHT31;63583;49.976;20.182;2023-06-14T13:10:13;16.02;85.04
75022;SHT31;63583;49.976;20.182;2023-06-14T13:12:39;16.18;85.01
75022;SHT31;63583;49.976;20.182;2023-06-14T13:15:05;16.14;86.04
75022;SHT31;63583;49.976;20.182;2023-06-14T13:17:33;16.49;84.07
75022;SHT31;63583;49.976;20.182;2023-06-14T13:20:05;16.56;81.26
75022;SHT31;63583;49.976;20.182;2023-06-14T13:22:31;16.79;80.61
75022;SHT31;63583;49.976;20.182;2023-06-14T13:24:56;16.51;80.46
75022;SHT31;63583;49.976;20.182;2023-06-14T13:27:22;16.60;80.64
75022;SHT31;63583;49.976;20.182;2023-06-14T13:29:49;16.87;79.85
75022;SHT31;63583;49.976;20.182;2023-06-14T13:32:15;16.51;79.07
75022;SHT31;63583;49.976;20.182;2023-06-14T13:34:41;16.77;79.55
75022;SHT31;63583;49.976;20.182;2023-06-14T13:37:07;17.15;77.72
75022;SHT31;63583;49.976;20.182;2023-06-14T13:39:32;16.93;81.47
75022;SHT31;63583;49.976;20.182;2023-06-14T13:41:58;16.57;80.88
75022;SHT31;63583;49.976;20.182;2023-06-14T13:44:23;16.39;83.07
75022;SHT31;63583;49.976;20.182;2023-06-14T13:46:50;16.18;83.36
75022;SHT31;63583;49.976;20.182;2023-06-14T13:49:16;15.84;84.77
75022;SHT31;63583;49.976;20.182;2023-06-14T13:51:42;15.78;85.02
75022;SHT31;63583;49.976;20.182;2023-06-14T13:54:08;15.78;84.70
75022;SHT31;63583;49.976;20.182;2023-06-14T13:56:34;15.70;84.12
75022;SHT31;63583;49.976;20.182;2023-06-14T13:58:59;15.57;84.86
75022;SHT31;63583;49.976;20.182;2023-06-14T14:01:26;15.43;83.77
75022;SHT31;63583;49.976;20.182;2023-06-14T14:03:54;15.40;83.09
75022;SHT31;63583;49.976;20.182;2023-06-14T14:06:20;15.36;83.84
75022;SHT31;63583;49.976;20.182;2023-06-14T14:08:46;15.42;84.59
75022;SHT31;63583;49.976;20.182;2023-06-14T14:11:11;15.50;84.10
75022;SHT31;63583;49.976;20.182;2023-06-14T14:13:37;15.66;83.87
75022;SHT31;63583;49.976;20.182;2023-06-14T14:16:05;15.84;83.80
75022;SHT31;63583;49.976;20.182;2023-06-14T14:18:31;15.80;84.18
75022;SHT31;63583;49.976;20.182;2023-06-14T14:20:58;15.86;83.18
75022;SHT31;63583;49.976;20.182;2023-06-14T14:23:24;15.83;80.99
75022;SHT31;63583;49.976;20.182;2023-06-14T14:25:50;15.80;79.17
75022;SHT31;63583;49.976;20.182;2023-06-14T14:28:15;15.98;79.39
75022;SHT31;63583;49.976;20.182;2023-06-14T14:30:42;16.15;79.17
75022;SHT31;63583;49.976;20.182;2023-06-14T14:33:07;16.11;79.83
75022;SHT31;63583;49.976;20.182;2023-06-14T14:35:33;16.09;80.03
75022;SHT31;63583;49.976;20.182;2023-06-14T14:37:59;16.19;78.06
75022;SHT31;63583;49.976;20.182;2023-06-14T14:40:25;16.29;79.64
75022;SHT31;63583;49.976;20.182;2023-06-14T14:42:50;16.22;78.41
75022;SHT31;63583;49.976;20.182;2023-06-14T14:45:16;16.39;79.13
75022;SHT31;63583;49.976;20.182;2023-06-14T14:47:41;16.38;78.39
75022;SHT31;63583;49.976;20.182;2023-06-14T14:50:07;16.48;78.52
75022;SHT31;63583;49.976;20.182;2023-06-14T14:52:37;16.43;78.63
75022;SHT31;63583;49.976;20.182;2023-06-14T14:55:03;16.62;77.31
75022;SHT31;63583;49.976;20.182;2023-06-14T14:57:28;16.29;75.41
75022;SHT31;63583;49.976;20.182;2023-06-14T14:59:55;16.35;76.57
75022;SHT31;63583;49.976;20.182;2023-06-14T15:02:21;16.59;77.36
75022;SHT31;63583;49.976;20.182;2023-06-14T15:04:48;16.67;76.30
75022;SHT31;63583;49.976;20.182;2023-06-14T15:07:13;16.55;75.89
75022;SHT31;63583;49.976;20.182;2023-06-14T15:09:39;16.95;76.20
75022;SHT31;63583;49.976;20.182;2023-06-14T15:12:06;16.91;74.71
75022;SHT31;63583;49.976;20.182;2023-06-14T15:14:32;17.10;76.81
75022;SHT31;63583;49.976;20.182;2023-06-14T15:16:58;17.17;74.58
75022;SHT31;63583;49.976;20.182;2023-06-14T15:19:24;17.25;76.23
75022;SHT31;63583;49.976;20.182;2023-06-14T15:21:49;17.22;76.59
75022;SHT31;63583;49.976;20.182;2023-06-14T15:24:15;17.39;76.02
75022;SHT31;63583;49.976;20.182;2023-06-14T15:26:40;17.38;74.65
75022;SHT31;63583;49.976;20.182;2023-06-14T15:29:06;17.36;75.84